Time;durP1;ratioP1;P1;durP2;ratioP2;P2;SDS_P1;SDS_P2;PMS_P1;PMS_P2;Temp;Humidity;BMP_temperature;BMP_pressure;BME280_temperature;BME280_humidity;BME280_pressure;Samples;Min_cycle;Max_cycle;Signal;HPM_P1;HPM_P2
2022/09/30 00:01:40;;;;;;;12.90;12.30;;;11.70;42.00;;;;;;4992682;28;20419;-51
2022/09/30 00:04:11;;;;;;;13.60;12.90;;;11.60;43.40;;;;;;4993008;28;20522;-53
2022/09/30 00:06:37;;;;;;;14.17;12.97;;;11.70;42.30;;;;;;4993433;28;20416;-53
2022/09/30 00:09:04;;;;;;;12.80;12.00;;;11.70;42.00;;;;;;4992833;28;20447;-55
2022/09/30 00:11:32;;;;;;;12.53;11.83;;;11.70;43.10;;;;;;4992849;28;20268;-53
2022/09/30 00:13:59;;;;;;;12.57;11.70;;;11.90;42.20;;;;;;4992883;28;20507;-54
2022/09/30 00:16:27;;;;;;;12.30;11.70;;;11.90;41.10;;;;;;4993153;28;20427;-53
2022/09/30 00:18:57;;;;;;;13.00;12.20;;;11.90;41.40;;;;;;4992222;28;20455;-46
2022/09/30 00:21:24;;;;;;;12.20;11.60;;;12.00;41.50;;;;;;4992200;28;20778;-44
2022/09/30 00:23:50;;;;;;;12.60;12.00;;;12.10;40.80;;;;;;4992305;28;20456;-44
2022/09/30 00:26:18;;;;;;;12.27;11.30;;;12.30;40.30;;;;;;4991666;28;20439;-43
2022/09/30 00:28:45;;;;;;;13.57;12.57;;;12.30;40.00;;;;;;4991922;28;20446;-48
2022/09/30 00:31:14;;;;;;;12.53;11.70;;;12.40;39.90;;;;;;4992629;28;20412;-56
2022/09/30 00:33:42;;;;;;;12.37;11.77;;;12.50;39.50;;;;;;4993048;28;20848;-51
2022/09/30 00:36:08;;;;;;;12.63;11.93;;;12.60;39.20;;;;;;4992615;28;20833;-51
2022/09/30 00:38:34;;;;;;;13.70;12.80;;;12.70;39.00;;;;;;4992920;28;21086;-53
2022/09/30 00:41:01;;;;;;;13.30;12.57;;;12.60;38.90;;;;;;4992159;28;20409;-51
2022/09/30 00:43:50;;;;;;;12.33;11.73;;;12.70;39.10;;;;;;4992331;28;20693;-51
2022/09/30 00:46:37;;;;;;;13.07;12.27;;;12.60;38.30;;;;;;4992589;28;20412;-52
2022/09/30 00:49:16;;;;;;;13.63;12.93;;;12.40;39.50;;;;;;4991908;28;20727;-54
2022/09/30 00:51:47;;;;;;;13.63;12.93;;;12.20;40.30;;;;;;4992404;28;20412;-54
2022/09/30 00:54:18;;;;;;;11.97;11.37;;;12.00;41.00;;;;;;4992295;28;20421;-53
2022/09/30 00:56:48;;;;;;;13.33;12.53;;;11.80;42.00;;;;;;4992171;28;20420;-52
2022/09/30 00:59:20;;;;;;;13.47;12.80;;;11.70;42.70;;;;;;4992138;28;20795;-52
2022/09/30 01:01:46;;;;;;;13.70;12.80;;;11.70;42.60;;;;;;4992054;28;20555;-50
2022/09/30 01:04:27;;;;;;;14.83;14.03;;;11.60;43.00;;;;;;4992050;28;20554;-51
2022/09/30 01:06:53;;;;;;;14.53;13.40;;;11.50;42.90;;;;;;4991966;28;20207;-53
2022/09/30 01:09:19;;;;;;;12.87;12.17;;;11.60;43.10;;;;;;4991842;28;20506;-53
2022/09/30 01:11:46;;;;;;;12.70;12.00;;;11.60;43.60;;;;;;4992108;28;20228;-52
2022/09/30 01:14:16;;;;;;;12.43;11.83;;;11.60;43.60;;;;;;5009845;28;20443;-54
2022/09/30 01:16:54;;;;;;;13.83;13.03;;;11.70;43.50;;;;;;4991667;28;20421;-55
2022/09/30 01:19:35;;;;;;;13.47;12.77;;;11.90;43.30;;;;;;4992650;28;20420;-56
2022/09/30 01:22:03;;;;;;;12.70;12.07;;;12.10;42.80;;;;;;4991708;28;20554;-43
2022/09/30 01:24:39;;;;;;;13.70;13.00;;;12.20;41.90;;;;;;5010122;28;20570;-42
2022/09/30 01:27:43;;;;;;;12.87;12.17;;;12.40;41.40;;;;;;5010518;28;20556;-43
2022/09/30 01:30:18;;;;;;;12.63;11.97;;;12.50;40.90;;;;;;5011644;28;20416;-52
2022/09/30 01:33:21;;;;;;;12.10;11.30;;;12.60;40.40;;;;;;5011264;28;20505;-54
2022/09/30 01:36:55;;;;;;;12.50;11.87;;;12.70;40.20;;;;;;5010703;28;20887;-54
2022/09/30 01:39:57;;;;;;;12.30;11.40;;;12.70;39.90;;;;;;4883331;28;20440;-50
2022/09/30 01:42:23;;;;;;;12.90;11.83;;;12.70;39.40;;;;;;5011768;28;20415;-48
2022/09/30 01:45:11;;;;;;;12.43;11.73;;;12.80;39.30;;;;;;5011299;28;20870;-49
2022/09/30 01:47:42;;;;;;;13.53;12.83;;;12.80;38.80;;;;;;5011371;28;20239;-52
2022/09/30 01:50:19;;;;;;;12.50;11.60;;;12.80;38.50;;;;;;5011184;28;20408;-54
2022/09/30 01:53:05;;;;;;;14.10;13.10;;;12.80;38.40;;;;;;5011309;28;20442;-55
2022/09/30 01:55:52;;;;;;;13.13;12.20;;;12.80;38.70;;;;;;5011434;28;20414;-50
2022/09/30 01:58:27;;;;;;;13.50;12.57;;;12.80;39.00;;;;;;5010914;28;20423;-52
2022/09/30 02:00:59;;;;;;;13.03;11.90;;;12.80;39.10;;;;;;5011105;28;20475;-54
2022/09/30 02:03:41;;;;;;;12.53;11.73;;;12.80;39.10;;;;;;5010769;28;20519;-53
2022/09/30 02:06:12;;;;;;;12.43;11.83;;;12.80;39.10;;;;;;5011332;28;20420;-51
2022/09/30 02:08:59;;;;;;;11.83;11.33;;;12.90;38.90;;;;;;5029205;28;20948;-52
2022/09/30 02:11:43;;;;;;;13.30;12.50;;;12.90;38.80;;;;;;5011689;28;20430;-54
2022/09/30 02:14:19;;;;;;;14.03;13.10;;;12.90;39.00;;;;;;5014664;28;20896;-53
2022/09/30 02:16:49;;;;;;;12.47;11.87;;;12.90;38.70;;;;;;5014493;28;20927;-55
2022/09/30 02:19:22;;;;;;;13.37;12.57;;;12.90;38.80;;;;;;5014507;28;20453;-52
2022/09/30 02:21:54;;;;;;;14.07;13.23;;;12.90;38.80;;;;;;5014431;28;20415;-52
2022/09/30 02:24:24;;;;;;;14.13;13.33;;;12.80;38.80;;;;;;5014349;28;20481;-55
2022/09/30 02:26:55;;;;;;;12.70;12.10;;;12.80;38.90;;;;;;5014450;28;20527;-54
2022/09/30 02:29:31;;;;;;;13.13;12.27;;;12.80;39.20;;;;;;5014899;28;20407;-54
2022/09/30 02:32:04;;;;;;;13.40;12.70;;;12.80;38.90;;;;;;5014043;28;20419;-51
2022/09/30 02:34:44;;;;;;;12.40;11.80;;;12.70;39.20;;;;;;5013937;28;20962;-56
2022/09/30 02:37:49;;;;;;;13.13;12.10;;;12.70;39.50;;;;;;5014783;28;20446;-51
2022/09/30 02:40:34;;;;;;;13.20;12.60;;;12.70;39.40;;;;;;4915862;29;20430;-45
2022/09/30 02:43:02;;;;;;;13.47;12.67;;;12.70;39.80;;;;;;5006658;28;20427;-44
2022/09/30 02:45:30;;;;;;;12.87;12.23;;;12.70;39.40;;;;;;5010634;28;20463;-53
2022/09/30 02:48:17;;;;;;;13.00;12.30;;;12.80;39.30;;;;;;5012872;28;20896;-55
2022/09/30 02:51:07;;;;;;;14.07;13.47;;;12.70;39.20;;;;;;5012868;28;20415;-56
2022/09/30 02:53:42;;;;;;;13.77;13.17;;;12.70;39.20;;;;;;5013619;28;20538;-54
2022/09/30 02:56:33;;;;;;;13.93;13.03;;;12.70;39.10;;;;;;5014107;28;20410;-56
2022/09/30 02:58:59;;;;;;;14.37;13.57;;;12.60;39.30;;;;;;5013321;28;20411;-44
2022/09/30 03:01:25;;;;;;;13.83;12.70;;;12.70;39.20;;;;;;5011752;28;20411;-44
2022/09/30 03:03:52;;;;;;;13.53;12.80;;;12.60;39.80;;;;;;5012942;28;20208;-45
2022/09/30 03:06:18;;;;;;;12.97;12.37;;;12.60;39.80;;;;;;5012200;28;20480;-46
2022/09/30 03:08:45;;;;;;;13.87;13.07;;;12.60;39.70;;;;;;5012298;28;20435;-44
2022/09/30 03:11:17;;;;;;;14.13;13.10;;;12.60;39.40;;;;;;5012176;28;20424;-43
2022/09/30 03:14:10;;;;;;;14.13;13.43;;;12.60;39.10;;;;;;5012283;28;20407;-43
2022/09/30 03:16:48;;;;;;;12.50;11.90;;;12.50;39.40;;;;;;5011892;28;20427;-44
2022/09/30 03:19:14;;;;;;;12.60;12.07;;;12.50;39.10;;;;;;5012950;28;20423;-44
2022/09/30 03:22:05;;;;;;;13.47;12.57;;;12.30;39.50;;;;;;5012568;28;20908;-43
2022/09/30 03:24:58;;;;;;;12.63;12.13;;;12.20;40.00;;;;;;5029435;28;20209;-43
2022/09/30 03:27:50;;;;;;;12.60;12.00;;;12.10;40.30;;;;;;5030816;28;20752;-43
2022/09/30 03:30:25;;;;;;;12.97;12.30;;;12.00;40.80;;;;;;5013288;28;20423;-55
2022/09/30 03:33:14;;;;;;;14.30;13.50;;;12.10;40.90;;;;;;5013760;28;20897;-55
2022/09/30 03:36:00;;;;;;;21.43;20.00;;;12.10;40.80;;;;;;5013487;28;20512;-55
2022/09/30 03:38:39;;;;;;;17.70;16.27;;;12.20;40.70;;;;;;5013722;28;20420;-55
2022/09/30 03:41:07;;;;;;;13.80;13.00;;;12.30;40.80;;;;;;5013332;28;20522;-54
2022/09/30 03:44:01;;;;;;;13.77;12.90;;;12.30;40.60;;;;;;5013137;28;20423;-53
2022/09/30 03:46:36;;;;;;;13.43;12.27;;;12.40;40.40;;;;;;5013578;28;20447;-54
2022/09/30 03:49:05;;;;;;;13.80;13.10;;;12.60;39.90;;;;;;5013463;28;20407;-50
2022/09/30 03:51:34;;;;;;;14.23;13.53;;;12.60;39.60;;;;;;5013591;28;20423;-52
2022/09/30 03:54:00;;;;;;;14.13;13.27;;;12.70;39.70;;;;;;5013380;28;20424;-55
2022/09/30 03:56:30;;;;;;;14.50;13.50;;;12.80;39.30;;;;;;5014024;28;20449;-51
2022/09/30 03:58:56;;;;;;;14.40;13.60;;;12.80;38.90;;;;;;5013858;28;20180;-54
2022/09/30 04:01:22;;;;;;;14.80;13.90;;;12.80;38.80;;;;;;5013938;28;20881;-52
2022/09/30 04:03:52;;;;;;;16.07;14.30;;;12.80;39.00;;;;;;5013481;28;20854;-43
2022/09/30 04:06:19;;;;;;;15.40;14.30;;;12.90;38.50;;;;;;5013377;28;20420;-44
2022/09/30 04:08:45;;;;;;;15.10;14.20;;;12.90;38.60;;;;;;5007234;28;20420;-46
2022/09/30 04:11:11;;;;;;;15.40;14.30;;;12.90;38.50;;;;;;4994005;28;20420;-49
2022/09/30 04:13:37;;;;;;;15.67;14.67;;;12.90;38.40;;;;;;4993628;28;20308;-45
2022/09/30 04:16:04;;;;;;;14.17;13.47;;;12.90;38.20;;;;;;4993968;28;20740;-48
2022/09/30 04:18:31;;;;;;;20.27;18.30;;;13.00;38.00;;;;;;5012261;28;20410;-43
2022/09/30 04:20:57;;;;;;;23.57;21.13;;;12.90;37.90;;;;;;4993402;28;20427;-46
2022/09/30 04:23:23;;;;;;;22.40;20.43;;;12.90;37.90;;;;;;4994115;28;20810;-45
2022/09/30 04:25:53;;;;;;;15.50;14.50;;;12.90;38.00;;;;;;4994202;28;20451;-45
2022/09/30 04:28:19;;;;;;;15.90;14.83;;;12.90;38.50;;;;;;4994291;28;20909;-52
2022/09/30 04:30:44;;;;;;;15.87;14.87;;;12.80;38.20;;;;;;4994193;28;20503;-50
2022/09/30 04:33:11;;;;;;;14.73;13.57;;;12.80;38.60;;;;;;4994007;28;20177;-46
2022/09/30 04:35:38;;;;;;;15.00;13.90;;;12.80;38.60;;;;;;4993870;28;20227;-49
2022/09/30 04:38:06;;;;;;;14.83;13.67;;;12.80;38.80;;;;;;4994106;28;20430;-51
2022/09/30 04:40:36;;;;;;;13.70;13.00;;;12.80;39.60;;;;;;4994273;28;20420;-49
2022/09/30 04:43:02;;;;;;;15.07;14.27;;;12.80;39.70;;;;;;4994635;28;20438;-47
2022/09/30 04:45:28;;;;;;;16.70;14.93;;;12.80;39.10;;;;;;4993781;28;20464;-45
2022/09/30 04:47:54;;;;;;;15.73;14.63;;;12.80;39.00;;;;;;4994399;28;20424;-49
2022/09/30 04:50:20;;;;;;;15.00;14.20;;;12.80;39.10;;;;;;4994349;28;20420;-47
2022/09/30 04:52:46;;;;;;;15.60;14.50;;;12.70;39.00;;;;;;4993631;28;20169;-50
2022/09/30 04:55:12;;;;;;;15.40;14.47;;;12.70;39.10;;;;;;5004060;28;20668;-45
2022/09/30 04:57:38;;;;;;;15.20;14.27;;;12.70;38.50;;;;;;5023669;28;20410;-48
2022/09/30 05:00:05;;;;;;;14.47;13.67;;;12.70;39.00;;;;;;5013912;28;20193;-50
2022/09/30 05:02:31;;;;;;;14.17;13.40;;;12.70;38.80;;;;;;5014267;28;20204;-51
2022/09/30 05:04:56;;;;;;;16.23;15.27;;;12.70;38.50;;;;;;5013813;28;20459;-45
2022/09/30 05:07:22;;;;;;;14.90;14.10;;;12.70;38.60;;;;;;5013594;28;20419;-48
2022/09/30 05:09:47;;;;;;;15.73;14.53;;;12.70;39.20;;;;;;5013830;28;20176;-49
2022/09/30 05:12:14;;;;;;;15.30;14.30;;;12.70;38.70;;;;;;5013544;28;20184;-49
2022/09/30 05:14:40;;;;;;;14.43;13.47;;;12.70;38.60;;;;;;5013429;28;20679;-47
2022/09/30 05:17:06;;;;;;;16.03;14.90;;;12.70;38.60;;;;;;5013451;28;20419;-47
2022/09/30 05:19:31;;;;;;;15.23;14.13;;;12.70;38.40;;;;;;5009824;28;20485;-49
2022/09/30 05:21:57;;;;;;;15.10;14.20;;;12.60;38.50;;;;;;4993394;28;20182;-45
2022/09/30 05:24:23;;;;;;;15.37;13.77;;;12.60;38.50;;;;;;4995131;28;20302;-46
2022/09/30 05:26:49;;;;;;;17.03;15.87;;;12.60;38.50;;;;;;4993913;28;20184;-48
2022/09/30 05:29:15;;;;;;;15.07;14.17;;;12.60;38.50;;;;;;4993503;28;20181;-45
2022/09/30 05:31:41;;;;;;;14.40;13.60;;;12.60;38.50;;;;;;5010955;28;20412;-48
2022/09/30 05:34:07;;;;;;;14.40;13.50;;;12.60;38.50;;;;;;4993462;28;20412;-48
2022/09/30 05:36:32;;;;;;;15.10;14.20;;;12.50;38.50;;;;;;5013400;28;20431;-48
2022/09/30 05:38:58;;;;;;;16.17;15.23;;;12.50;38.70;;;;;;5011914;28;20226;-45
2022/09/30 05:41:24;;;;;;;15.40;14.40;;;12.40;38.80;;;;;;5013775;28;20563;-54
2022/09/30 05:43:49;;;;;;;15.53;14.63;;;12.40;38.90;;;;;;5013551;28;20568;-49
2022/09/30 05:46:17;;;;;;;17.53;16.30;;;12.40;39.00;;;;;;5015503;28;20638;-52
2022/09/30 05:48:42;;;;;;;16.73;15.40;;;12.30;38.90;;;;;;5017357;28;20553;-52
2022/09/30 05:51:09;;;;;;;14.57;13.73;;;12.40;39.00;;;;;;5017260;28;20408;-51
2022/09/30 05:53:40;;;;;;;16.23;15.10;;;12.40;38.80;;;;;;5016746;28;20177;-46
2022/09/30 05:56:06;;;;;;;15.97;14.93;;;12.40;39.00;;;;;;5017395;28;20945;-46
2022/09/30 05:58:33;;;;;;;15.87;14.87;;;12.40;39.00;;;;;;5016806;28;20506;-50
2022/09/30 06:01:12;;;;;;;16.77;15.87;;;12.40;39.10;;;;;;5015772;28;20456;-48
2022/09/30 06:03:38;;;;;;;16.70;15.70;;;12.40;38.80;;;;;;5015038;28;20407;-48
2022/09/30 06:06:05;;;;;;;16.23;15.33;;;12.40;39.20;;;;;;5015501;28;20423;-45
2022/09/30 06:08:31;;;;;;;16.90;15.77;;;12.40;39.30;;;;;;5015221;28;20226;-47
2022/09/30 06:10:58;;;;;;;16.87;15.53;;;12.30;39.40;;;;;;5015344;28;20442;-46
2022/09/30 06:13:24;;;;;;;16.50;15.40;;;11.90;41.60;;;;;;5015024;28;20690;-48
2022/09/30 06:16:01;;;;;;;18.00;16.90;;;11.70;42.50;;;;;;5016142;28;20465;-47
2022/09/30 06:18:28;;;;;;;20.63;19.30;;;11.50;42.90;;;;;;5016167;28;20787;-45
2022/09/30 06:20:58;;;;;;;18.70;17.60;;;11.40;44.30;;;;;;5016213;28;20427;-50
2022/09/30 06:23:24;;;;;;;19.03;17.23;;;11.50;43.80;;;;;;5016647;28;20422;-46
2022/09/30 06:25:52;;;;;;;18.07;16.80;;;11.70;43.10;;;;;;5016331;28;20871;-46
2022/09/30 06:28:18;;;;;;;19.40;17.90;;;11.80;43.10;;;;;;5016223;28;20950;-48
2022/09/30 06:30:44;;;;;;;18.07;16.87;;;11.70;42.10;;;;;;5015717;28;20493;-47
2022/09/30 06:33:12;;;;;;;18.27;17.27;;;11.80;42.50;;;;;;5016218;28;20916;-48
2022/09/30 06:35:40;;;;;;;20.33;18.70;;;11.70;42.50;;;;;;5016575;28;20239;-53
2022/09/30 06:38:07;;;;;;;19.17;17.80;;;11.60;43.00;;;;;;5016560;28;20419;-52
2022/09/30 06:40:32;;;;;;;20.20;18.87;;;11.70;43.10;;;;;;5016037;28;20506;-54
2022/09/30 06:42:59;;;;;;;20.10;18.60;;;11.50;42.90;;;;;;5016534;28;20416;-49
2022/09/30 06:45:26;;;;;;;20.20;18.67;;;11.30;43.60;;;;;;5016498;28;20209;-52
2022/09/30 06:47:59;;;;;;;19.53;18.27;;;11.20;44.60;;;;;;5016584;28;20921;-47
2022/09/30 06:50:25;;;;;;;20.33;18.37;;;11.20;44.90;;;;;;5034209;28;20813;-51
2022/09/30 06:52:51;;;;;;;19.53;18.20;;;11.30;44.40;;;;;;5016150;28;20566;-49
2022/09/30 06:55:17;;;;;;;19.50;17.90;;;11.50;44.40;;;;;;5016430;28;20450;-48
2022/09/30 06:57:46;;;;;;;19.03;17.80;;;11.60;43.70;;;;;;5015735;28;20338;-52
2022/09/30 07:00:14;;;;;;;19.20;17.93;;;11.80;43.20;;;;;;5016200;28;20423;-47
2022/09/30 07:02:40;;;;;;;18.17;16.97;;;12.00;42.90;;;;;;5009565;28;20424;-48
2022/09/30 07:05:06;;;;;;;17.97;16.77;;;12.10;42.10;;;;;;5012937;28;20987;-45
2022/09/30 07:07:33;;;;;;;18.83;17.30;;;12.00;41.60;;;;;;5034420;28;20419;-46
2022/09/30 07:09:59;;;;;;;18.37;16.77;;;11.90;42.80;;;;;;5015800;28;20415;-45
2022/09/30 07:12:25;;;;;;;21.00;19.60;;;11.90;42.50;;;;;;5016141;28;20430;-45
2022/09/30 07:14:51;;;;;;;21.13;19.23;;;11.80;43.20;;;;;;5015842;28;20184;-48
2022/09/30 07:17:17;;;;;;;22.00;20.10;;;11.70;43.10;;;;;;5015627;28;20478;-48
2022/09/30 07:19:43;;;;;;;23.93;22.17;;;11.70;43.10;;;;;;5010784;28;20506;-48
2022/09/30 07:22:27;;;;;;;22.80;21.13;;;11.70;43.40;;;;;;5015827;28;20183;-48
2022/09/30 07:24:54;;;;;;;25.40;22.97;;;11.70;43.40;;;;;;5015395;28;20220;-46
2022/09/30 07:27:20;;;;;;;24.30;22.57;;;11.60;43.70;;;;;;5015559;28;20835;-50
2022/09/30 07:29:46;;;;;;;24.33;22.60;;;11.60;44.60;;;;;;5015638;28;20787;-44
2022/09/30 07:32:12;;;;;;;26.00;24.30;;;11.60;43.80;;;;;;5015736;28;20415;-47
2022/09/30 07:34:41;;;;;;;25.37;23.53;;;11.60;43.70;;;;;;5015742;28;20423;-45
2022/09/30 07:37:08;;;;;;;23.20;21.57;;;11.60;43.90;;;;;;5015470;28;20426;-44
2022/09/30 07:39:35;;;;;;;22.47;20.60;;;11.60;44.20;;;;;;5015567;28;20510;-45
2022/09/30 07:42:01;;;;;;;24.13;22.23;;;11.70;43.80;;;;;;5015211;28;20470;-46
2022/09/30 07:44:28;;;;;;;23.50;22.00;;;11.70;43.40;;;;;;5015536;28;20491;-46
2022/09/30 07:46:53;;;;;;;24.67;22.57;;;11.80;43.50;;;;;;5015569;28;20185;-45
2022/09/30 07:49:24;;;;;;;25.23;23.33;;;11.70;43.90;;;;;;5034470;28;20427;-45
2022/09/30 07:51:52;;;;;;;23.27;21.47;;;11.70;43.80;;;;;;5034754;28;20184;-48
2022/09/30 07:54:23;;;;;;;23.40;21.83;;;11.80;43.20;;;;;;5035280;28;20471;-51
2022/09/30 07:56:50;;;;;;;20.10;18.50;;;11.90;44.00;;;;;;5035099;28;20418;-51
2022/09/30 07:59:17;;;;;;;21.60;19.90;;;11.80;43.30;;;;;;5035259;28;20426;-46
2022/09/30 08:01:43;;;;;;;20.73;19.10;;;11.80;43.70;;;;;;5034580;28;20441;-49
2022/09/30 08:04:10;;;;;;;20.73;18.70;;;12.00;43.40;;;;;;5034511;28;20465;-50
2022/09/30 08:06:40;;;;;;;19.07;17.47;;;12.10;43.40;;;;;;5052783;28;20179;-46
2022/09/30 08:09:06;;;;;;;22.07;19.83;;;12.20;42.50;;;;;;5034025;28;20419;-45
2022/09/30 08:11:34;;;;;;;20.50;18.87;;;12.20;42.40;;;;;;5034565;28;20836;-45
2022/09/30 08:14:00;;;;;;;21.00;19.30;;;12.20;42.50;;;;;;5034720;28;21009;-50
2022/09/30 08:16:26;;;;;;;20.27;18.53;;;12.10;42.50;;;;;;5034837;28;20521;-50
2022/09/30 08:18:56;;;;;;;20.90;19.40;;;12.20;43.30;;;;;;5052533;28;20226;-51
2022/09/30 08:21:22;;;;;;;21.80;20.00;;;12.00;43.20;;;;;;5034085;28;20290;-51
2022/09/30 08:23:48;;;;;;;20.70;19.10;;;12.10;43.20;;;;;;5003225;28;20423;-53
2022/09/30 08:26:15;;;;;;;25.07;20.73;;;12.10;43.40;;;;;;5002976;28;20440;-54
2022/09/30 08:28:41;;;;;;;20.20;18.30;;;12.20;43.60;;;;;;5005995;28;20416;-52
2022/09/30 08:31:10;;;;;;;20.87;19.43;;;12.40;43.00;;;;;;5020156;28;20430;-49
2022/09/30 08:33:37;;;;;;;20.60;18.80;;;12.30;42.00;;;;;;5028160;28;20444;-50
2022/09/30 08:36:06;;;;;;;21.53;19.73;;;12.40;42.80;;;;;;5011393;28;20514;-48
2022/09/30 08:38:32;;;;;;;19.40;17.80;;;12.50;42.20;;;;;;5005245;28;20423;-51
2022/09/30 08:41:21;;;;;;;20.73;19.13;;;12.70;42.00;;;;;;5005248;28;20469;-50
2022/09/30 08:43:56;;;;;;;20.43;18.77;;;12.80;41.40;;;;;;5011057;28;20422;-48
2022/09/30 08:46:38;;;;;;;21.07;19.57;;;12.90;41.00;;;;;;4995093;28;20411;-49
2022/09/30 08:49:43;;;;;;;21.17;19.30;;;13.00;40.60;;;;;;5012534;28;20776;-46
2022/09/30 08:52:18;;;;;;;22.03;20.27;;;13.00;39.70;;;;;;4947132;28;20451;-48
2022/09/30 08:54:47;;;;;;;22.00;20.03;;;13.00;40.30;;;;;;4994652;28;20556;-51
2022/09/30 08:57:13;;;;;;;18.80;17.40;;;13.20;39.80;;;;;;4994978;28;20443;-53
2022/09/30 08:59:51;;;;;;;21.67;19.60;;;13.20;38.80;;;;;;4998997;28;20440;-52
2022/09/30 09:02:26;;;;;;;19.77;18.20;;;13.20;39.10;;;;;;5009700;28;20420;-49
2022/09/30 09:04:56;;;;;;;21.97;19.93;;;13.30;38.50;;;;;;5013861;28;20465;-47
2022/09/30 09:07:35;;;;;;;19.83;18.30;;;13.30;39.10;;;;;;5014570;28;20415;-49
2022/09/30 09:10:04;;;;;;;20.37;18.63;;;13.30;39.10;;;;;;5014005;28;20517;-48
2022/09/30 09:12:35;;;;;;;19.57;18.17;;;13.20;39.40;;;;;;5008291;28;20569;-49
2022/09/30 09:15:14;;;;;;;20.27;18.43;;;13.10;39.50;;;;;;5013902;28;20478;-47
2022/09/30 09:18:09;;;;;;;20.77;19.20;;;13.30;39.90;;;;;;5040690;28;20462;-50
2022/09/30 09:20:41;;;;;;;19.90;17.90;;;13.30;39.60;;;;;;4995047;28;20909;-50
2022/09/30 09:23:11;;;;;;;20.20;18.40;;;13.30;39.20;;;;;;4998630;28;20995;-49
2022/09/30 09:25:37;;;;;;;21.43;19.50;;;13.40;39.10;;;;;;4998390;28;20472;-49
2022/09/30 09:28:22;;;;;;;19.77;18.17;;;13.40;39.00;;;;;;4998472;28;20427;-48
2022/09/30 09:30:55;;;;;;;20.37;18.57;;;13.50;39.30;;;;;;5031008;28;20447;-53
2022/09/30 09:33:25;;;;;;;22.20;19.90;;;13.50;38.80;;;;;;4998522;28;20971;-51
2022/09/30 09:36:06;;;;;;;19.90;18.47;;;13.70;38.10;;;;;;4998262;28;20456;-47
2022/09/30 09:38:53;;;;;;;20.77;18.67;;;13.80;37.70;;;;;;4998503;28;20497;-48
2022/09/30 09:41:35;;;;;;;18.80;17.50;;;13.90;37.10;;;;;;4998090;28;20456;-49
2022/09/30 09:44:26;;;;;;;19.80;18.30;;;13.90;36.20;;;;;;5027845;28;20471;-47
2022/09/30 09:46:53;;;;;;;20.10;18.07;;;13.90;36.50;;;;;;5017539;28;20907;-50
2022/09/30 09:49:19;;;;;;;17.87;16.80;;;14.00;35.70;;;;;;5017640;28;20422;-50
2022/09/30 09:52:11;;;;;;;17.80;16.40;;;14.00;35.60;;;;;;5017318;28;20423;-50
2022/09/30 09:54:42;;;;;;;16.70;15.40;;;14.10;34.30;;;;;;5017721;28;20225;-48
2022/09/30 09:57:26;;;;;;;16.07;14.83;;;14.20;33.70;;;;;;5017538;28;20423;-49
2022/09/30 09:59:57;;;;;;;15.67;14.57;;;14.30;30.80;;;;;;4999799;28;20470;-48
2022/09/30 10:02:30;;;;;;;15.30;14.00;;;14.30;31.90;;;;;;4997862;28;20431;-47
2022/09/30 10:05:00;;;;;;;15.00;14.00;;;14.30;31.10;;;;;;4997625;28;20529;-46
2022/09/30 10:07:28;;;;;;;14.70;13.90;;;14.30;30.10;;;;;;4997697;28;20481;-51
2022/09/30 10:10:17;;;;;;;14.80;13.70;;;14.30;30.10;;;;;;4997399;28;20424;-50
2022/09/30 10:12:44;;;;;;;14.43;13.63;;;14.40;31.00;;;;;;5016150;28;20780;-52
2022/09/30 10:15:30;;;;;;;14.77;13.80;;;14.60;30.90;;;;;;5017173;28;20434;-52
2022/09/30 10:17:58;;;;;;;15.80;14.87;;;14.80;30.30;;;;;;5016622;28;20911;-52
2022/09/30 10:20:35;;;;;;;17.17;15.57;;;14.90;29.80;;;;;;5016850;28;20494;-51
2022/09/30 10:23:25;;;;;;;15.70;14.77;;;14.80;30.50;;;;;;5016973;28;20450;-51
2022/09/30 10:26:14;;;;;;;16.53;15.27;;;14.80;30.30;;;;;;5007626;28;20799;-55
2022/09/30 10:28:55;;;;;;;14.90;14.03;;;14.90;29.80;;;;;;5007756;28;20423;-54
2022/09/30 10:31:43;;;;;;;16.77;15.30;;;14.90;29.70;;;;;;5031681;28;20832;-49
2022/09/30 10:34:32;;;;;;;17.40;16.30;;;15.10;29.70;;;;;;5016014;28;20907;-47
2022/09/30 10:37:01;;;;;;;17.97;15.60;;;15.10;29.80;;;;;;5003041;28;20552;-51
2022/09/30 10:39:34;;;;;;;17.13;15.73;;;15.20;30.10;;;;;;4997165;28;20421;-51
2022/09/30 10:42:22;;;;;;;15.77;14.77;;;15.40;29.80;;;;;;4997067;28;20416;-52
2022/09/30 10:44:53;;;;;;;16.13;15.03;;;15.40;28.40;;;;;;4996851;28;20550;-49
2022/09/30 10:47:23;;;;;;;15.77;14.40;;;15.30;28.70;;;;;;4997220;28;20420;-48
2022/09/30 10:49:54;;;;;;;15.03;13.93;;;15.40;28.70;;;;;;4996776;28;20430;-53
2022/09/30 10:52:24;;;;;;;16.30;14.80;;;15.40;28.30;;;;;;4996929;28;20417;-51
2022/09/30 10:54:58;;;;;;;15.03;14.07;;;15.50;27.90;;;;;;4996811;28;20838;-49
2022/09/30 10:57:36;;;;;;;16.30;15.10;;;15.70;27.10;;;;;;4997037;28;20498;-48
2022/09/30 11:00:17;;;;;;;13.90;13.00;;;15.60;26.50;;;;;;4996284;28;20438;-49
2022/09/30 11:03:01;;;;;;;13.77;12.97;;;15.70;27.10;;;;;;4997047;28;20420;-47
2022/09/30 11:05:39;;;;;;;13.60;12.40;;;15.70;25.00;;;;;;4996571;28;20468;-52
2022/09/30 11:08:28;;;;;;;11.23;10.50;;;15.80;23.90;;;;;;4996663;28;20458;-53
2022/09/30 11:11:04;;;;;;;13.27;12.47;;;15.60;26.00;;;;;;5013856;28;20942;-53
2022/09/30 11:13:46;;;;;;;11.00;10.40;;;15.50;25.90;;;;;;4996629;28;20431;-50
2022/09/30 11:16:56;;;;;;;11.50;10.80;;;15.50;24.30;;;;;;4996141;28;20455;-51
2022/09/30 11:19:59;;;;;;;10.93;10.43;;;15.60;23.70;;;;;;4937235;29;20418;-46
2022/09/30 11:22:48;;;;;;;10.73;10.23;;;15.80;23.30;;;;;;4937368;29;20775;-47
2022/09/30 11:25:23;;;;;;;10.70;10.10;;;15.90;23.00;;;;;;4988465;28;20486;-49
2022/09/30 11:27:52;;;;;;;11.03;10.53;;;15.90;22.80;;;;;;4996369;28;20415;-47
2022/09/30 11:30:23;;;;;;;10.13;9.70;;;15.80;22.30;;;;;;4996221;28;20416;-45
2022/09/30 11:33:01;;;;;;;10.03;9.53;;;15.80;22.90;;;;;;5025150;28;20430;-48
2022/09/30 11:35:53;;;;;;;10.73;10.03;;;15.70;22.50;;;;;;5035525;28;20418;-47
2022/09/30 11:38:59;;;;;;;9.80;9.37;;;15.80;23.00;;;;;;5015468;28;20451;-46
2022/09/30 11:41:38;;;;;;;10.33;9.87;;;15.90;22.40;;;;;;4995727;28;20907;-47
2022/09/30 11:44:22;;;;;;;10.03;9.53;;;15.90;22.40;;;;;;4995709;28;20456;-48
2022/09/30 11:47:06;;;;;;;10.63;9.93;;;15.90;21.70;;;;;;5006993;28;20986;-51
2022/09/30 11:49:46;;;;;;;9.90;9.40;;;15.80;21.80;;;;;;5010679;28;20455;-50
2022/09/30 11:52:17;;;;;;;10.20;9.70;;;15.80;21.40;;;;;;4995724;28;20412;-45
2022/09/30 11:55:24;;;;;;;9.30;8.90;;;15.90;20.80;;;;;;4995869;28;20625;-45
2022/09/30 11:57:55;;;;;;;9.97;9.33;;;15.90;21.60;;;;;;4995548;28;20420;-59
2022/09/30 12:00:21;;;;;;;11.00;10.40;;;15.90;22.30;;;;;;4995533;28;20989;-52
2022/09/30 12:02:52;;;;;;;11.10;10.60;;;16.00;23.00;;;;;;4995490;28;20502;-48
2022/09/30 12:05:46;;;;;;;10.90;10.30;;;16.00;23.50;;;;;;4995610;28;20204;-48
2022/09/30 12:08:27;;;;;;;11.80;11.00;;;15.90;23.10;;;;;;4995179;28;20420;-48
2022/09/30 12:11:07;;;;;;;10.70;10.00;;;15.90;23.50;;;;;;4995194;28;20901;-50
2022/09/30 12:13:46;;;;;;;12.23;11.53;;;16.00;23.00;;;;;;4995558;28;20412;-52
2022/09/30 12:16:21;;;;;;;10.07;9.40;;;16.10;23.20;;;;;;4995530;28;20423;-51
2022/09/30 12:19:24;;;;;;;10.23;9.73;;;16.20;22.60;;;;;;4995371;28;20888;-50
2022/09/30 12:21:56;;;;;;;10.90;10.40;;;16.30;22.00;;;;;;4995172;28;20416;-51
2022/09/30 12:24:35;;;;;;;9.40;9.00;;;16.30;21.10;;;;;;4995040;28;20808;-49
2022/09/30 12:27:01;;;;;;;10.83;10.13;;;16.30;20.90;;;;;;4995219;28;20893;-47
2022/09/30 12:32:59;;;;;;;10.53;10.00;;;16.30;21.70;;;;;;5013024;28;20419;-49
2022/09/30 12:35:58;;;;;;;10.47;9.97;;;16.40;21.30;;;;;;5013481;28;20423;-53
2022/09/30 12:38:34;;;;;;;9.77;9.27;;;16.40;20.90;;;;;;5014636;28;20427;-50
2022/09/30 12:41:10;;;;;;;10.37;9.90;;;16.40;21.60;;;;;;5014348;28;20438;-51
2022/09/30 12:44:21;;;;;;;10.20;9.80;;;16.40;21.10;;;;;;5014549;28;20438;-48
2022/09/30 12:46:53;;;;;;;9.70;9.30;;;16.50;20.50;;;;;;5014400;28;20415;-50
2022/09/30 12:49:24;;;;;;;10.00;9.30;;;16.40;20.60;;;;;;5014304;28;20423;-51
2022/09/30 12:51:55;;;;;;;10.60;10.00;;;16.40;20.30;;;;;;5014513;28;20407;-49
2022/09/30 12:54:32;;;;;;;10.13;9.73;;;16.40;20.50;;;;;;5007291;28;20444;-46
2022/09/30 12:57:06;;;;;;;10.07;9.67;;;16.40;21.00;;;;;;4994516;28;20420;-53
2022/09/30 12:59:35;;;;;;;10.37;9.97;;;16.50;20.30;;;;;;4995313;28;20908;-51
2022/09/30 13:02:03;;;;;;;10.20;9.80;;;16.50;20.50;;;;;;4998484;28;20431;-51
2022/09/30 13:04:32;;;;;;;9.43;9.03;;;16.50;19.60;;;;;;5014583;28;20467;-53